Time;durP1;ratioP1;P1;durP2;ratioP2;P2;SDS_P1;SDS_P2;PMS_P1;PMS_P2;Temp;Humidity;BMP_temperature;BMP_pressure;BME280_temperature;BME280_humidity;BME280_pressure;Samples;Min_cycle;Max_cycle;Signal;HPM_P1;HPM_P2
2021/09/29 00:01:13;;;;;;;0.22;0.22;;;;;;;10.52;90.44;101196.94;5104743;28;20028;-68
2021/09/29 00:03:39;;;;;;;0.30;0.30;;;;;;;10.53;90.50;101203.88;5104657;28;20028;-67
2021/09/29 00:06:05;;;;;;;0.30;0.30;;;;;;;10.51;90.46;101200.38;5104535;28;20032;-69
2021/09/29 00:08:30;;;;;;;0.30;0.30;;;;;;;10.49;90.55;101198.66;5104608;28;20024;-69
2021/09/29 00:10:56;;;;;;;0.20;0.20;;;;;;;10.46;90.68;101196.00;5104527;28;20023;-69
2021/09/29 00:13:24;;;;;;;0.20;0.20;;;;;;;10.40;90.60;101195.13;5104339;28;20028;-69
2021/09/29 00:15:53;;;;;;;0.20;0.20;;;;;;;10.36;90.33;101201.16;5104454;28;20048;-69
2021/09/29 00:18:19;;;;;;;0.30;0.30;;;;;;;10.28;90.21;101195.06;5104479;28;20092;-67
2021/09/29 00:20:44;;;;;;;0.30;0.30;;;;;;;10.17;89.92;101184.63;5104411;28;20024;-68
2021/09/29 00:23:10;;;;;;;0.30;0.30;;;;;;;10.16;90.05;101191.53;5104192;28;20032;-67
2021/09/29 00:25:35;;;;;;;0.30;0.30;;;;;;;10.15;90.05;101197.59;5104048;28;20024;-68
2021/09/29 00:28:02;;;;;;;0.20;0.20;;;;;;;10.13;89.87;101191.50;5104395;28;20070;-68
2021/09/29 00:30:31;;;;;;;0.30;0.30;;;;;;;10.06;89.64;101197.53;5104345;28;20035;-68
2021/09/29 00:33:01;;;;;;;0.20;0.20;;;;;;;9.99;89.55;101190.53;5104239;28;20020;-69
2021/09/29 00:35:27;;;;;;;0.20;0.20;;;;;;;9.91;89.51;101193.09;5104384;28;20031;-69
2021/09/29 00:37:52;;;;;;;0.20;0.20;;;;;;;9.85;89.50;101191.34;5104457;28;20388;-68
2021/09/29 00:40:17;;;;;;;0.30;0.30;;;;;;;9.62;89.39;101170.41;5104580;28;20051;-67
2021/09/29 00:42:43;;;;;;;0.30;0.30;;;;;;;9.68;89.11;101191.19;5103882;28;20042;-68
2021/09/29 00:45:08;;;;;;;0.20;0.20;;;;;;;9.64;89.11;101182.53;5104113;28;20054;-68
2021/09/29 00:47:35;;;;;;;0.20;0.20;;;;;;;9.58;89.16;101185.09;5104134;28;20058;-68
2021/09/29 00:50:00;;;;;;;0.25;0.25;;;;;;;9.51;89.38;101180.69;5104008;28;20031;-68
2021/09/29 00:52:26;;;;;;;0.30;0.30;;;;;;;9.50;89.46;101168.59;5085140;28;20027;-68
2021/09/29 00:54:52;;;;;;;0.30;0.30;;;;;;;9.45;89.24;101172.84;5085454;28;20019;-68
2021/09/29 00:57:18;;;;;;;0.30;0.30;;;;;;;9.38;89.41;101167.63;5103812;28;20016;-68
2021/09/29 00:59:43;;;;;;;0.25;0.25;;;;;;;9.33;89.25;101163.25;5104030;28;20092;-68
2021/09/29 01:02:09;;;;;;;0.30;0.30;;;;;;;9.21;89.31;101166.59;5103760;28;20463;-68
2021/09/29 01:04:34;;;;;;;0.20;0.20;;;;;;;9.20;89.41;101173.50;5085330;28;20483;-68
2021/09/29 01:07:24;;;;;;;0.30;0.30;;;;;;;9.15;89.56;101165.66;5103725;28;20031;-69
2021/09/29 01:09:52;;;;;;;0.20;0.20;;;;;;;9.14;89.81;101166.53;5103539;28;20063;-69
2021/09/29 01:13:00;;;;;;;0.30;0.30;;;;;;;9.12;89.82;101160.47;5103383;28;20028;-67
2021/09/29 01:15:28;;;;;;;0.30;0.30;;;;;;;9.11;89.98;101157.84;5074284;28;20087;-68
2021/09/29 01:18:06;;;;;;;0.30;0.30;;;;;;;9.10;90.23;101158.72;5103708;28;20028;-69
2021/09/29 01:20:47;;;;;;;0.28;0.28;;;;;;;9.08;90.12;101153.53;5103398;28;20045;-69
2021/09/29 01:23:48;;;;;;;0.40;0.40;;;;;;;9.03;90.23;101153.47;5103254;28;20034;-68
2021/09/29 01:26:15;;;;;;;0.30;0.30;;;;;;;9.01;90.12;101152.59;5084883;28;20059;-68
2021/09/29 01:28:55;;;;;;;0.30;0.30;;;;;;;9.01;90.11;101151.75;5103388;28;20110;-69
2021/09/29 01:31:22;;;;;;;0.30;0.30;;;;;;;8.99;90.31;101148.25;5103478;28;20028;-69
2021/09/29 01:33:49;;;;;;;0.30;0.30;;;;;;;8.92;90.42;101143.03;5103416;28;20103;-68
2021/09/29 01:36:18;;;;;;;0.30;0.30;;;;;;;8.95;90.64;101149.06;5103275;28;20024;-70
2021/09/29 01:38:47;;;;;;;0.30;0.30;;;;;;;8.93;90.57;101139.56;5103298;28;20016;-70
2021/09/29 01:41:13;;;;;;;0.30;0.30;;;;;;;8.96;90.80;101141.31;5103395;28;20020;-68
2021/09/29 01:43:38;;;;;;;0.30;0.30;;;;;;;9.00;90.83;101147.41;5103366;28;20752;-69
2021/09/29 01:46:06;;;;;;;0.30;0.30;;;;;;;9.02;91.02;101136.22;5103083;28;20024;-67
2021/09/29 01:48:32;;;;;;;0.30;0.30;;;;;;;9.03;91.08;101135.34;5103202;28;20051;-68
2021/09/29 01:50:59;;;;;;;0.20;0.20;;;;;;;9.03;91.02;101127.59;5103347;28;20316;-68
2021/09/29 01:53:31;;;;;;;0.30;0.30;;;;;;;9.01;91.16;101115.47;5103168;28;20024;-68
2021/09/29 01:55:57;;;;;;;0.40;0.40;;;;;;;9.04;91.24;101124.13;5102950;28;20048;-69
2021/09/29 01:58:22;;;;;;;0.20;0.20;;;;;;;9.09;91.24;101126.75;5103203;28;20047;-69
2021/09/29 02:00:48;;;;;;;0.30;0.30;;;;;;;9.12;91.12;101119.00;5084600;28;20031;-68
2021/09/29 02:03:19;;;;;;;0.63;0.63;;;;;;;9.13;91.32;101115.59;5103316;28;20046;-69
2021/09/29 02:05:50;;;;;;;0.40;0.40;;;;;;;9.17;91.24;101106.09;5107324;28;20020;-68
2021/09/29 02:08:17;;;;;;;0.30;0.30;;;;;;;9.20;91.31;101113.06;5107152;28;20111;-68
2021/09/29 02:10:43;;;;;;;0.28;0.28;;;;;;;9.16;91.06;101102.66;5106636;28;20238;-68
2021/09/29 02:13:08;;;;;;;0.30;0.30;;;;;;;9.24;91.26;101107.03;5107177;28;20024;-68
2021/09/29 02:15:33;;;;;;;0.30;0.30;;;;;;;9.23;91.24;101095.81;5106754;28;20028;-68
2021/09/29 02:17:59;;;;;;;0.30;0.30;;;;;;;9.25;91.10;101099.28;5106658;28;20119;-67
2021/09/29 02:20:25;;;;;;;0.30;0.30;;;;;;;9.28;91.29;101095.84;5106707;28;20050;-69
2021/09/29 02:22:50;;;;;;;0.60;0.60;;;;;;;9.25;91.19;101091.50;5106783;28;20032;-69
2021/09/29 02:25:16;;;;;;;0.30;0.30;;;;;;;9.26;91.33;101087.19;5106507;28;20051;-68
2021/09/29 02:27:41;;;;;;;0.30;0.30;;;;;;;9.25;91.31;101088.91;5106579;28;20032;-69
2021/09/29 02:30:09;;;;;;;0.30;0.30;;;;;;;9.25;91.27;101088.91;5106363;28;20020;-68
2021/09/29 02:32:37;;;;;;;0.20;0.20;;;;;;;9.29;91.63;101089.81;5106524;28;20509;-68
2021/09/29 02:35:04;;;;;;;0.20;0.20;;;;;;;9.33;91.71;101081.19;5106407;28;20035;-68
2021/09/29 02:37:29;;;;;;;0.40;0.40;;;;;;;9.38;91.75;101081.22;5106394;28;20020;-69
2021/09/29 02:39:55;;;;;;;0.30;0.30;;;;;;;9.41;91.79;101074.34;5106289;28;20068;-68
2021/09/29 02:42:20;;;;;;;0.30;0.30;;;;;;;9.40;91.63;101072.63;5106390;28;20088;-68
2021/09/29 02:44:45;;;;;;;0.30;0.30;;;;;;;9.42;91.76;101078.66;5106508;28;20024;-68
2021/09/29 02:47:11;;;;;;;0.52;0.52;;;;;;;9.41;91.80;101071.75;5106447;28;20572;-69
2021/09/29 02:49:36;;;;;;;0.30;0.30;;;;;;;9.42;91.70;101065.69;5106318;28;20012;-69
2021/09/29 02:52:02;;;;;;;0.30;0.30;;;;;;;9.46;91.65;101063.13;5106129;28;20024;-69
2021/09/29 02:54:27;;;;;;;0.30;0.30;;;;;;;9.46;91.61;101069.19;5105955;28;20024;-69
2021/09/29 02:56:53;;;;;;;0.30;0.30;;;;;;;9.45;91.82;101064.00;5106154;28;20028;-70
2021/09/29 02:59:18;;;;;;;0.30;0.30;;;;;;;9.44;91.84;101057.09;5106132;28;20097;-69
2021/09/29 03:01:43;;;;;;;0.28;0.28;;;;;;;9.49;91.76;101066.63;5106165;28;20141;-70
2021/09/29 03:04:09;;;;;;;0.30;0.30;;;;;;;9.45;92.14;101054.50;5106176;28;20504;-70
2021/09/29 03:06:35;;;;;;;0.30;0.30;;;;;;;9.49;92.00;101063.19;5105789;28;20034;-71
2021/09/29 03:09:01;;;;;;;0.28;0.28;;;;;;;9.51;91.92;101054.53;5105898;28;20038;-69
2021/09/29 03:11:27;;;;;;;0.30;0.30;;;;;;;9.48;91.68;101053.66;5105734;28;20028;-69
2021/09/29 03:13:53;;;;;;;0.30;0.30;;;;;;;9.39;91.42;101052.72;5105912;28;20024;-68
2021/09/29 03:16:18;;;;;;;0.30;0.30;;;;;;;9.28;91.23;101051.81;5104976;28;20024;-70
2021/09/29 03:18:44;;;;;;;0.20;0.20;;;;;;;9.18;91.10;101045.69;5087608;28;20031;-69
2021/09/29 03:21:10;;;;;;;0.30;0.30;;;;;;;9.13;91.21;101045.66;5105603;28;20017;-69
2021/09/29 03:23:36;;;;;;;0.30;0.30;;;;;;;9.12;91.45;101046.47;5105601;28;20051;-69
2021/09/29 03:26:01;;;;;;;0.30;0.30;;;;;;;9.12;91.46;101045.63;5105490;28;20026;-69
2021/09/29 03:28:27;;;;;;;0.30;0.30;;;;;;;9.10;91.63;101048.22;5104546;28;20042;-69
2021/09/29 03:30:52;;;;;;;0.30;0.30;;;;;;;9.11;91.64;101042.16;5104885;28;20095;-69
2021/09/29 03:33:18;;;;;;;0.30;0.30;;;;;;;9.12;91.77;101040.47;5105451;28;20125;-69
2021/09/29 03:35:43;;;;;;;0.30;0.30;;;;;;;9.12;91.85;101030.94;5086994;28;20016;-69
2021/09/29 03:38:09;;;;;;;0.30;0.30;;;;;;;9.14;92.04;101026.66;5105174;28;20182;-69
2021/09/29 03:40:35;;;;;;;0.30;0.30;;;;;;;9.20;92.22;101019.78;5105258;28;20101;-69
2021/09/29 03:43:00;;;;;;;0.30;0.30;;;;;;;9.26;92.27;101022.41;5104997;28;20024;-69
2021/09/29 03:45:26;;;;;;;0.30;0.30;;;;;;;9.31;92.07;101025.91;5105341;28;20028;-69
2021/09/29 03:47:52;;;;;;;0.30;0.30;;;;;;;9.35;92.20;101022.47;5105026;28;20103;-69
2021/09/29 03:50:17;;;;;;;0.30;0.30;;;;;;;9.38;92.43;101019.91;5104922;28;20043;-69
2021/09/29 03:52:43;;;;;;;0.30;0.30;;;;;;;9.47;92.45;101016.53;5104754;28;20016;-69
2021/09/29 03:55:09;;;;;;;0.20;0.20;;;;;;;9.50;92.47;101011.34;5104990;28;20020;-69
2021/09/29 03:57:35;;;;;;;0.30;0.30;;;;;;;9.53;92.34;100998.41;5103911;28;20499;-69
2021/09/29 04:00:02;;;;;;;0.30;0.30;;;;;;;9.59;92.30;101004.47;5103841;28;20032;-69
2021/09/29 04:02:27;;;;;;;0.30;0.30;;;;;;;9.65;92.18;101015.75;5104193;28;20024;-69
2021/09/29 04:04:52;;;;;;;0.30;0.30;;;;;;;9.69;92.38;101007.97;5104799;28;20125;-71
2021/09/29 04:07:18;;;;;;;0.30;0.30;;;;;;;9.73;92.23;101005.41;5104567;28;20031;-68
2021/09/29 04:09:46;;;;;;;0.20;0.20;;;;;;;9.77;92.48;101009.75;5104725;28;20032;-68
2021/09/29 04:12:12;;;;;;;0.30;0.30;;;;;;;9.84;92.48;101012.38;5104294;28;20032;-68
2021/09/29 04:14:37;;;;;;;0.30;0.30;;;;;;;9.86;92.32;101014.09;5084916;28;20055;-68
2021/09/29 04:17:03;;;;;;;0.30;0.30;;;;;;;9.90;92.05;101007.22;5102909;28;20024;-68
2021/09/29 04:19:28;;;;;;;0.30;0.30;;;;;;;9.89;92.19;101011.53;5104142;28;20020;-69
2021/09/29 04:21:54;;;;;;;0.30;0.30;;;;;;;9.88;91.94;101009.81;5104111;28;20057;-69
2021/09/29 04:24:19;;;;;;;0.73;0.73;;;;;;;9.89;91.90;101008.06;5103520;28;20036;-66
2021/09/29 04:26:44;;;;;;;0.30;0.30;;;;;;;9.89;91.96;101006.34;5085391;28;20035;-68
2021/09/29 04:29:10;;;;;;;0.20;0.20;;;;;;;9.89;91.98;101008.06;5103709;28;20019;-66
2021/09/29 04:31:35;;;;;;;0.30;0.30;;;;;;;9.88;92.16;100996.84;5103959;28;20028;-69
2021/09/29 04:34:00;;;;;;;0.30;0.30;;;;;;;9.88;91.96;100999.44;5103933;28;20028;-67
2021/09/29 04:36:26;;;;;;;0.30;0.30;;;;;;;9.92;91.84;100993.38;5103673;28;20024;-68
2021/09/29 04:38:51;;;;;;;0.30;0.30;;;;;;;9.95;92.01;101002.03;5103864;28;20058;-68
2021/09/29 04:41:17;;;;;;;0.20;0.20;;;;;;;9.90;92.06;100994.25;5103856;28;20081;-69
2021/09/29 04:43:42;;;;;;;0.30;0.30;;;;;;;9.99;92.24;100999.47;5103956;28;20674;-69
2021/09/29 04:46:08;;;;;;;2.20;0.98;;;;;;;9.98;92.27;101002.06;5103981;28;20031;-68
2021/09/29 04:48:33;;;;;;;0.30;0.30;;;;;;;10.02;92.08;101011.56;5103923;28;20030;-68
2021/09/29 04:50:59;;;;;;;0.30;0.30;;;;;;;10.06;92.17;101005.56;5103715;28;20012;-69
2021/09/29 04:53:24;;;;;;;0.30;0.30;;;;;;;10.07;92.21;101004.69;5103304;28;20024;-69
2021/09/29 04:55:50;;;;;;;0.30;0.30;;;;;;;10.07;92.35;100999.50;5103555;28;20047;-68
2021/09/29 04:58:15;;;;;;;0.30;0.30;;;;;;;10.05;91.97;100996.00;5103873;28;20026;-68
2021/09/29 05:00:40;;;;;;;0.30;0.30;;;;;;;10.02;92.07;100985.63;5103829;28;20028;-69
2021/09/29 05:03:10;;;;;;;0.30;0.30;;;;;;;10.01;92.08;100984.78;5103964;28;20024;-69
2021/09/29 05:05:36;;;;;;;0.30;0.30;;;;;;;10.01;92.27;100986.50;5103798;28;20024;-69
2021/09/29 05:08:05;;;;;;;0.38;0.38;;;;;;;9.99;92.22;100983.03;5103716;28;20280;-69
2021/09/29 05:10:45;;;;;;;0.30;0.30;;;;;;;9.96;92.36;100985.59;5103570;28;20024;-69
2021/09/29 05:13:17;;;;;;;0.30;0.30;;;;;;;9.92;92.25;100980.41;5103627;28;20055;-69
2021/09/29 05:15:43;;;;;;;0.35;0.35;;;;;;;9.91;92.13;100988.19;5103716;28;20027;-69
2021/09/29 05:18:08;;;;;;;0.25;0.25;;;;;;;9.91;92.52;100985.59;5103387;28;20035;-69
2021/09/29 05:20:33;;;;;;;0.63;0.63;;;;;;;9.92;92.38;100984.72;5103433;28;20053;-69
2021/09/29 05:22:59;;;;;;;0.30;0.30;;;;;;;9.95;92.73;100979.56;5103624;28;20061;-70
2021/09/29 05:25:24;;;;;;;0.30;0.30;;;;;;;9.98;92.73;100981.31;5103619;28;20048;-69
2021/09/29 05:27:51;;;;;;;0.30;0.30;;;;;;;9.92;92.78;100966.56;5103431;28;20464;-70
2021/09/29 05:30:16;;;;;;;0.30;0.30;;;;;;;10.04;92.83;100984.78;5103668;28;20535;-69
2021/09/29 05:32:42;;;;;;;0.20;0.20;;;;;;;10.07;92.57;100981.31;5103297;28;20032;-69
2021/09/29 05:35:07;;;;;;;0.30;0.30;;;;;;;10.11;92.31;100983.06;5103733;28;20028;-69
2021/09/29 05:37:33;;;;;;;0.30;0.30;;;;;;;10.14;92.58;100977.03;5103454;28;20035;-70
2021/09/29 05:39:58;;;;;;;0.50;0.50;;;;;;;10.20;92.53;100983.94;5106262;28;20424;-69
2021/09/29 05:42:23;;;;;;;0.30;0.30;;;;;;;10.22;92.79;100977.94;5107437;28;20035;-68
2021/09/29 05:44:49;;;;;;;0.30;0.30;;;;;;;10.28;92.72;100985.72;5107577;28;20110;-70
2021/09/29 05:47:14;;;;;;;0.30;0.30;;;;;;;10.33;92.93;100972.75;5107597;28;20020;-69
2021/09/29 05:49:39;;;;;;;0.30;0.30;;;;;;;10.36;92.55;100972.75;5107758;28;20020;-69
2021/09/29 05:52:05;;;;;;;0.30;0.30;;;;;;;10.44;92.68;100974.47;5088916;28;20016;-69
2021/09/29 05:54:31;;;;;;;0.20;0.20;;;;;;;10.48;92.79;100978.88;5107190;28;20457;-69
2021/09/29 05:56:57;;;;;;;0.68;0.68;;;;;;;10.46;92.93;100977.94;5107040;28;20030;-69
2021/09/29 05:59:22;;;;;;;0.20;0.20;;;;;;;10.57;93.15;100976.28;5107570;28;20080;-69
2021/09/29 06:01:47;;;;;;;2.63;2.42;;;;;;;10.65;93.13;100971.94;5107365;28;20024;-69
2021/09/29 06:04:13;;;;;;;0.30;0.30;;;;;;;10.72;92.67;100972.81;5107254;28;20024;-69
2021/09/29 06:06:38;;;;;;;0.52;0.52;;;;;;;10.77;92.74;100965.00;5088788;28;20028;-69
2021/09/29 06:09:04;;;;;;;0.30;0.30;;;;;;;10.78;93.11;100967.59;5107286;28;20102;-71
2021/09/29 06:11:29;;;;;;;0.32;0.32;;;;;;;10.86;92.62;100965.00;5107375;28;20034;-70
2021/09/29 06:14:00;;;;;;;0.63;0.63;;;;;;;10.84;92.58;100953.75;5107122;28;20401;-69
2021/09/29 06:16:26;;;;;;;0.30;0.30;;;;;;;10.88;92.62;100960.69;5107265;28;20035;-68
2021/09/29 06:18:51;;;;;;;0.30;0.30;;;;;;;10.90;92.73;100952.88;5107128;28;20023;-69
2021/09/29 06:21:18;;;;;;;0.98;0.98;;;;;;;10.96;92.60;100962.41;5107101;28;20173;-69
2021/09/29 06:23:43;;;;;;;0.40;0.40;;;;;;;10.96;92.35;100954.63;5106856;28;20097;-70
2021/09/29 06:26:09;;;;;;;0.30;0.30;;;;;;;10.94;92.76;100954.63;5106772;28;20023;-70
2021/09/29 06:28:37;;;;;;;0.22;0.22;;;;;;;10.96;92.92;100952.88;5107019;28;20024;-70
2021/09/29 06:31:06;;;;;;;0.30;0.30;;;;;;;11.06;93.13;100958.06;5106889;28;20012;-70
2021/09/29 06:33:32;;;;;;;0.20;0.20;;;;;;;11.12;93.20;100964.13;5106824;28;20039;-70
2021/09/29 06:35:57;;;;;;;4.45;2.65;;;;;;;11.16;93.01;100962.38;5106785;28;20595;-70
2021/09/29 06:38:22;;;;;;;0.30;0.30;;;;;;;11.17;93.04;100958.06;5106856;28;20020;-70
2021/09/29 06:40:48;;;;;;;0.30;0.30;;;;;;;11.23;92.93;100955.44;5106605;28;20031;-70
2021/09/29 06:43:13;;;;;;;0.30;0.30;;;;;;;11.25;93.23;100957.16;5106387;28;20087;-71
2021/09/29 06:45:38;;;;;;;0.30;0.30;;;;;;;11.33;92.90;100957.13;5106497;28;20048;-70
2021/09/29 06:48:04;;;;;;;0.30;0.30;;;;;;;11.40;92.06;100958.88;5106522;28;20027;-69
2021/09/29 06:50:30;;;;;;;0.30;0.30;;;;;;;11.33;92.57;100954.53;5105403;28;20249;-70
2021/09/29 06:52:55;;;;;;;0.40;0.40;;;;;;;11.35;92.80;100954.53;5106322;28;20020;-71
2021/09/29 06:55:21;;;;;;;0.30;0.30;;;;;;;11.40;92.77;100958.88;5106453;28;20087;-72
2021/09/29 06:57:46;;;;;;;0.52;0.52;;;;;;;11.47;93.04;100957.09;5106114;28;20023;-72
2021/09/29 07:00:14;;;;;;;0.30;0.30;;;;;;;11.55;93.22;100957.06;5106175;28;20028;-72
2021/09/29 07:02:44;;;;;;;0.30;0.30;;;;;;;11.62;93.20;100956.19;5106051;28;20148;-71
2021/09/29 07:05:10;;;;;;;0.30;0.30;;;;;;;11.68;93.15;100950.06;5106302;28;20108;-71
2021/09/29 07:07:35;;;;;;;0.95;0.95;;;;;;;11.73;93.13;100944.84;5087875;28;20031;-71
2021/09/29 07:10:03;;;;;;;0.30;0.30;;;;;;;11.73;93.05;100952.66;5105909;28;20040;-71
2021/09/29 07:12:29;;;;;;;0.30;0.30;;;;;;;11.78;93.00;100958.72;5105708;28;20024;-70
2021/09/29 07:14:54;;;;;;;0.20;0.20;;;;;;;11.84;93.19;100950.88;5105785;28;20024;-70
2021/09/29 07:17:19;;;;;;;0.22;0.22;;;;;;;11.94;93.42;100943.91;5105908;28;20055;-70
2021/09/29 07:19:47;;;;;;;0.60;0.60;;;;;;;12.07;93.09;100949.91;5105931;28;20012;-70
2021/09/29 07:22:12;;;;;;;0.30;0.30;;;;;;;12.11;92.78;100948.16;5105930;28;20051;-69
2021/09/29 07:24:37;;;;;;;0.30;0.30;;;;;;;12.12;92.74;100944.69;5105567;28;20326;-70
2021/09/29 07:27:03;;;;;;;0.20;0.20;;;;;;;12.18;92.74;100941.19;5104921;28;20083;-69
2021/09/29 07:29:28;;;;;;;0.60;0.60;;;;;;;12.21;92.30;100944.63;5086382;28;20012;-69
2021/09/29 07:31:54;;;;;;;0.30;0.30;;;;;;;12.23;91.63;100935.09;5105068;28;20032;-69
2021/09/29 07:34:23;;;;;;;0.40;0.40;;;;;;;12.21;91.73;100935.94;5105749;28;20055;-69
2021/09/29 07:36:48;;;;;;;2.30;0.82;;;;;;;12.25;91.87;100933.31;5105401;28;20024;-69
2021/09/29 07:39:13;;;;;;;0.30;0.30;;;;;;;12.22;92.06;100932.50;5105332;28;20087;-69
2021/09/29 07:41:39;;;;;;;0.65;0.65;;;;;;;12.24;92.30;100930.72;5105217;28;20028;-69
2021/09/29 07:44:06;;;;;;;0.28;0.28;;;;;;;12.30;92.58;100922.88;5105527;28;20030;-68
2021/09/29 07:46:32;;;;;;;0.35;0.35;;;;;;;12.39;93.02;100927.16;5105284;28;20104;-68
2021/09/29 07:48:57;;;;;;;0.20;0.20;;;;;;;12.59;92.13;100932.19;5105104;28;20036;-68
2021/09/29 07:51:23;;;;;;;0.50;0.50;;;;;;;12.73;90.54;100934.69;5086870;28;20603;-68
2021/09/29 07:53:48;;;;;;;0.45;0.45;;;;;;;12.59;90.71;100927.00;5105132;28;20020;-68
2021/09/29 07:56:14;;;;;;;0.40;0.40;;;;;;;12.58;90.95;100927.88;5105169;28;20103;-67
2021/09/29 07:58:39;;;;;;;0.25;0.25;;;;;;;12.61;91.88;100930.44;5105038;28;20433;-68
2021/09/29 08:01:04;;;;;;;0.30;0.30;;;;;;;12.74;92.35;100926.00;5104917;28;20028;-69
2021/09/29 08:03:30;;;;;;;0.40;0.40;;;;;;;12.79;92.46;100927.69;5105144;28;20016;-69
2021/09/29 08:06:00;;;;;;;0.40;0.40;;;;;;;12.85;91.09;100907.66;5104991;28;20093;-69
2021/09/29 08:08:25;;;;;;;0.30;0.30;;;;;;;12.86;90.29;100922.41;5104903;28;20327;-70
2021/09/29 08:10:51;;;;;;;0.90;0.90;;;;;;;12.84;90.87;100915.50;5104845;28;20032;-66
2021/09/29 08:13:16;;;;;;;0.70;0.52;;;;;;;13.02;90.95;100922.25;5104532;28;20028;-68
2021/09/29 08:15:41;;;;;;;0.28;0.28;;;;;;;12.93;90.78;100924.94;5104762;28;20498;-69
2021/09/29 08:18:07;;;;;;;0.50;0.50;;;;;;;13.01;91.02;100917.91;5104534;28;20020;-69
2021/09/29 08:20:34;;;;;;;0.20;0.20;;;;;;;13.06;90.14;100912.66;5104418;28;20107;-68
2021/09/29 08:25:49;;;;;;;0.40;0.40;;;;;;;13.05;90.25;100906.56;5104212;28;20048;-69
2021/09/29 08:29:09;;;;;;;0.30;0.30;;;;;;;13.06;90.30;100905.72;5104288;28;20028;-69
2021/09/29 08:31:10;;;;;;;1.05;1.05;;;;;;;13.18;89.09;100899.47;5098657;28;20463;-68
2021/09/29 08:38:48;;;;;;;0.30;0.30;;;;;;;13.18;89.63;100914.28;5104419;28;20031;-68
2021/09/29 08:41:36;;;;;;;0.30;0.30;;;;;;;13.23;89.43;100904.63;5103974;28;20028;-68
2021/09/29 08:44:14;;;;;;;0.28;0.28;;;;;;;13.30;88.31;100898.50;5104337;28;20484;-69
2021/09/29 08:52:07;;;;;;;0.20;0.20;;;;;;;13.33;87.00;100906.28;5104347;28;20059;-69
2021/09/29 09:16:33;;;;;;;0.30;0.30;;;;;;;14.11;82.91;100910.47;5040879;28;20051;-69
2021/09/29 09:19:03;;;;;;;0.20;0.20;;;;;;;14.29;81.49;100916.31;5024042;28;20079;-69
2021/09/29 09:21:29;;;;;;;0.35;0.35;;;;;;;14.33;80.49;100910.13;5040893;28;20080;-70
2021/09/29 09:23:55;;;;;;;0.20;0.20;;;;;;;14.27;81.67;100912.84;5040513;28;20049;-69
2021/09/29 09:26:28;;;;;;;0.20;0.20;;;;;;;14.30;80.82;100902.34;5040753;28;20039;-69
2021/09/29 09:29:08;;;;;;;0.20;0.20;;;;;;;14.61;78.84;100914.94;5040823;28;20032;-68
2021/09/29 09:31:35;;;;;;;0.20;0.20;;;;;;;14.48;80.09;100909.03;5041341;28;20040;-69
2021/09/29 09:34:04;;;;;;;0.20;0.20;;;;;;;14.55;81.24;100908.94;5041038;28;20029;-68
2021/09/29 09:36:31;;;;;;;0.20;0.20;;;;;;;14.74;80.83;100904.25;5040613;28;20060;-68
2021/09/29 09:38:57;;;;;;;0.20;0.20;;;;;;;14.71;79.88;100906.91;5040577;28;20048;-68
2021/09/29 09:41:24;;;;;;;0.30;0.30;;;;;;;14.62;79.67;100895.72;5040392;28;20026;-69
2021/09/29 09:43:58;;;;;;;0.20;0.20;;;;;;;14.73;80.27;100905.13;5040735;28;20033;-68
2021/09/29 09:46:24;;;;;;;0.20;0.20;;;;;;;14.67;80.46;100900.00;5040520;28;20108;-68
2021/09/29 09:49:06;;;;;;;0.22;0.22;;;;;;;14.75;79.95;100896.38;5061898;28;20043;-69
2021/09/29 09:51:33;;;;;;;0.65;0.65;;;;;;;14.71;80.00;100897.31;5103211;28;20055;-69
2021/09/29 09:54:00;;;;;;;0.20;0.20;;;;;;;15.49;78.16;100900.22;5103228;28;20036;-69
2021/09/29 09:56:29;;;;;;;0.20;0.20;;;;;;;16.04;75.69;100884.19;5103294;28;20024;-68
2021/09/29 09:58:56;;;;;;;0.20;0.20;;;;;;;15.80;75.46;100893.47;5103264;28;20119;-68
2021/09/29 10:01:24;;;;;;;0.20;0.20;;;;;;;15.48;76.95;100901.97;5103196;28;20080;-69
2021/09/29 10:03:51;;;;;;;0.20;0.20;;;;;;;15.39;79.75;100889.09;5103284;28;20403;-71
2021/09/29 10:06:19;;;;;;;0.20;0.20;;;;;;;16.47;78.82;100878.78;5103010;28;20024;-69
2021/09/29 10:08:52;;;;;;;0.20;0.20;;;;;;;17.01;75.82;100887.00;5103084;28;20440;-70
2021/09/29 10:11:27;;;;;;;0.20;0.20;;;;;;;17.85;70.95;100888.97;5102940;28;20028;-69
2021/09/29 10:14:17;;;;;;;0.35;0.35;;;;;;;17.41;69.25;100887.63;5103207;28;20020;-69
2021/09/29 10:28:19;;;;;;;0.30;0.30;;;;;;;16.30;71.30;100871.38;5106660;28;20078;-69
2021/09/29 10:31:14;;;;;;;0.20;0.20;;;;;;;16.16;73.48;100863.84;5106823;28;20016;-69
2021/09/29 10:33:44;;;;;;;0.20;0.20;;;;;;;16.32;73.38;100853.84;5106824;28;20032;-69
2021/09/29 10:44:45;;;;;;;0.20;0.20;;;;;;;16.96;68.90;100839.06;5106639;28;20028;-69
2021/09/29 10:47:17;;;;;;;0.20;0.20;;;;;;;16.95;69.66;100832.94;5106488;28;20027;-69
2021/09/29 10:50:05;;;;;;;0.30;0.30;;;;;;;16.82;69.93;100832.44;5106478;28;20016;-69
2021/09/29 10:52:52;;;;;;;0.20;0.20;;;;;;;16.66;70.65;100832.00;5106027;28;20032;-69
2021/09/29 11:09:22;;;;;;;4.03;0.95;;;;;;;19.41;70.11;100810.00;5106247;28;20267;-70
2021/09/29 11:36:20;;;;;;;0.20;0.20;;;;;;;17.12;72.98;100787.06;5062296;28;20021;-69
2021/09/29 12:12:15;;;;;;;0.20;0.20;;;;;;;15.98;74.88;100745.56;5104624;28;20039;-68
2021/09/29 12:14:40;;;;;;;0.20;0.20;;;;;;;16.09;73.82;100746.16;5104611;28;20045;-68
2021/09/29 12:17:05;;;;;;;0.20;0.20;;;;;;;16.08;74.52;100739.22;5104629;28;20016;-68
2021/09/29 12:19:41;;;;;;;0.20;0.20;;;;;;;16.19;74.90;100735.44;5104502;28;20032;-69
2021/09/29 12:22:19;;;;;;;0.35;0.35;;;;;;;16.17;75.65;100735.47;5104513;28;20024;-69
2021/09/29 12:25:05;;;;;;;0.20;0.20;;;;;;;16.15;76.01;100720.72;5104420;28;20043;-69
2021/09/29 12:27:46;;;;;;;0.20;0.20;;;;;;;16.14;75.08;100703.25;5104170;28;20027;-69
2021/09/29 12:30:20;;;;;;;0.60;0.60;;;;;;;16.21;74.59;100707.44;5104337;28;20024;-70
2021/09/29 12:35:46;;;;;;;0.30;0.30;;;;;;;16.19;74.65;100706.63;5104242;28;20051;-70
2021/09/29 12:38:12;;;;;;;0.20;0.20;;;;;;;16.16;74.27;100698.84;5104234;28;20051;-68
2021/09/29 12:40:41;;;;;;;0.20;0.20;;;;;;;16.17;73.19;100708.41;5104239;28;20020;-70
2021/09/29 12:43:16;;;;;;;0.20;0.20;;;;;;;16.06;74.16;100709.56;5085957;28;20020;-70
2021/09/29 12:45:50;;;;;;;0.20;0.20;;;;;;;16.06;74.99;100708.69;5104306;28;20085;-69
2021/09/29 12:48:19;;;;;;;0.20;0.20;;;;;;;16.12;73.70;100705.91;5103205;28;20024;-69
2021/09/29 12:50:49;;;;;;;0.20;0.20;;;;;;;16.20;71.39;100709.19;5104017;28;20051;-69
2021/09/29 12:56:12;;;;;;;0.32;0.32;;;;;;;15.97;73.26;100712.41;5104010;28;20400;-70
2021/09/29 12:58:37;;;;;;;0.75;0.75;;;;;;;15.99;74.52;100721.09;5117750;28;20028;-69
2021/09/29 13:01:03;;;;;;;0.20;0.20;;;;;;;16.09;72.20;100717.34;5103700;28;20055;-69
2021/09/29 13:03:29;;;;;;;0.20;0.20;;;;;;;15.94;74.89;100715.09;5103972;28;20039;-70
2021/09/29 13:05:57;;;;;;;0.20;0.20;;;;;;;15.94;74.43;100705.47;5103984;28;20020;-69
2021/09/29 13:08:23;;;;;;;0.20;0.20;;;;;;;15.96;75.36;100714.16;5085560;28;20023;-67
2021/09/29 13:10:48;;;;;;;0.20;0.20;;;;;;;16.28;72.24;100706.38;5103570;28;20028;-68
2021/09/29 13:13:14;;;;;;;0.20;0.20;;;;;;;16.11;72.46;100696.34;5103874;28;20024;-70
2021/09/29 13:15:42;;;;;;;0.88;0.80;;;;;;;16.00;74.38;100701.00;5103558;28;20031;-70
2021/09/29 13:18:13;;;;;;;0.20;0.20;;;;;;;15.99;74.34;100697.53;5102576;28;20028;-70
2021/09/29 13:20:39;;;;;;;0.20;0.20;;;;;;;16.03;74.71;100701.81;5102805;28;20087;-70
2021/09/29 13:23:12;;;;;;;0.20;0.20;;;;;;;15.98;74.60;100699.31;5103576;28;20035;-70
2021/09/29 13:36:40;;;;;;;0.20;0.20;;;;;;;15.86;73.43;100683.91;5103501;28;20096;-69
2021/09/29 13:39:11;;;;;;;0.20;0.20;;;;;;;15.81;74.80;100680.53;5103394;28;20024;-69
2021/09/29 13:41:38;;;;;;;0.30;0.30;;;;;;;15.71;75.86;100675.53;5103627;28;20048;-70
2021/09/29 13:44:04;;;;;;;0.20;0.20;;;;;;;15.79;75.73;100679.69;5103618;28;20028;-71
2021/09/29 13:46:30;;;;;;;0.20;0.20;;;;;;;15.80;75.43;100681.44;5103487;28;20035;-70
2021/09/29 13:48:57;;;;;;;0.40;0.40;;;;;;;15.73;75.01;100678.13;5103386;28;20028;-69
2021/09/29 13:51:25;;;;;;;0.30;0.30;;;;;;;15.63;75.87;100682.72;5103278;28;20027;-70
2021/09/29 13:53:52;;;;;;;0.30;0.30;;;;;;;15.58;76.69;100677.59;5103408;28;20038;-70
2021/09/29 13:56:19;;;;;;;0.20;0.20;;;;;;;15.64;75.88;100675.72;5103302;28;20028;-70